sensor_id;sensor_type;location;lat;lon;timestamp;P1;durP1;ratioP1;P2;durP2;ratioP2
55330;SDS011;58851;42.984;20.336;2023-03-16T00:01:16;13.38;;;8.90;;
55330;SDS011;58851;42.984;20.336;2023-03-16T00:03:43;20.40;;;10.63;;
55330;SDS011;58851;42.984;20.336;2023-03-16T00:06:08;16.98;;;9.65;;
55330;SDS011;58851;42.984;20.336;2023-03-16T00:08:34;15.15;;;8.73;;
55330;SDS011;58851;42.984;20.336;2023-03-16T00:11:01;10.25;;;6.15;;
55330;SDS011;58851;42.984;20.336;2023-03-16T00:13:27;11.75;;;7.13;;
55330;SDS011;58851;42.984;20.336;2023-03-16T00:15:57;8.60;;;6.07;;
55330;SDS011;58851;42.984;20.336;2023-03-16T00:18:25;15.23;;;7.88;;
55330;SDS011;58851;42.984;20.336;2023-03-16T00:20:52;8.82;;;6.32;;
55330;SDS011;58851;42.984;20.336;2023-03-16T00:23:20;5.85;;;4.75;;
55330;SDS011;58851;42.984;20.336;2023-03-16T00:25:56;7.85;;;5.03;;
55330;SDS011;58851;42.984;20.336;2023-03-16T00:28:23;11.32;;;7.00;;
55330;SDS011;58851;42.984;20.336;2023-03-16T00:30:50;10.73;;;7.07;;
55330;SDS011;58851;42.984;20.336;2023-03-16T00:33:16;8.38;;;5.55;;
55330;SDS011;58851;42.984;20.336;2023-03-16T00:35:46;10.88;;;8.13;;
55330;SDS011;58851;42.984;20.336;2023-03-16T00:38:16;9.65;;;6.93;;
55330;SDS011;58851;42.984;20.336;2023-03-16T00:40:42;8.80;;;6.20;;
55330;SDS011;58851;42.984;20.336;2023-03-16T00:43:08;6.40;;;4.40;;
55330;SDS011;58851;42.984;20.336;2023-03-16T00:45:34;9.57;;;5.35;;
55330;SDS011;58851;42.984;20.336;2023-03-16T00:48:00;10.10;;;6.18;;
55330;SDS011;58851;42.984;20.336;2023-03-16T00:50:26;9.90;;;4.63;;
55330;SDS011;58851;42.984;20.336;2023-03-16T00:52:52;6.30;;;4.85;;
55330;SDS011;58851;42.984;20.336;2023-03-16T00:55:18;7.38;;;4.88;;
55330;SDS011;58851;42.984;20.336;2023-03-16T00:57:44;7.53;;;5.15;;
55330;SDS011;58851;42.984;20.336;2023-03-16T01:00:10;9.13;;;5.22;;
55330;SDS011;58851;42.984;20.336;2023-03-16T01:02:40;7.13;;;5.32;;
55330;SDS011;58851;42.984;20.336;2023-03-16T01:05:06;7.72;;;5.43;;
55330;SDS011;58851;42.984;20.336;2023-03-16T01:07:33;7.70;;;5.20;;
55330;SDS011;58851;42.984;20.336;2023-03-16T01:10:00;5.75;;;3.53;;
55330;SDS011;58851;42.984;20.336;2023-03-16T01:12:26;6.50;;;4.28;;
55330;SDS011;58851;42.984;20.336;2023-03-16T01:14:52;7.53;;;5.05;;
55330;SDS011;58851;42.984;20.336;2023-03-16T01:17:19;9.98;;;5.95;;
55330;SDS011;58851;42.984;20.336;2023-03-16T01:19:46;8.50;;;6.22;;
55330;SDS011;58851;42.984;20.336;2023-03-16T01:22:13;7.80;;;4.78;;
55330;SDS011;58851;42.984;20.336;2023-03-16T01:24:40;9.13;;;6.18;;
55330;SDS011;58851;42.984;20.336;2023-03-16T01:27:07;8.98;;;5.30;;
55330;SDS011;58851;42.984;20.336;2023-03-16T01:29:33;10.10;;;6.63;;
55330;SDS011;58851;42.984;20.336;2023-03-16T01:31:59;9.18;;;5.95;;
55330;SDS011;58851;42.984;20.336;2023-03-16T01:34:26;9.27;;;5.80;;
55330;SDS011;58851;42.984;20.336;2023-03-16T01:36:51;8.82;;;5.93;;
55330;SDS011;58851;42.984;20.336;2023-03-16T01:39:18;7.72;;;4.90;;
55330;SDS011;58851;42.984;20.336;2023-03-16T01:41:44;7.60;;;5.97;;
55330;SDS011;58851;42.984;20.336;2023-03-16T01:44:11;6.82;;;5.05;;
55330;SDS011;58851;42.984;20.336;2023-03-16T01:46:39;8.20;;;5.43;;
55330;SDS011;58851;42.984;20.336;2023-03-16T01:51:57;6.55;;;3.55;;
55330;SDS011;58851;42.984;20.336;2023-03-16T01:54:36;7.95;;;4.78;;
55330;SDS011;58851;42.984;20.336;2023-03-16T01:57:14;5.30;;;3.25;;
55330;SDS011;58851;42.984;20.336;2023-03-16T01:59:42;9.27;;;5.45;;
55330;SDS011;58851;42.984;20.336;2023-03-16T02:02:16;8.57;;;4.65;;
55330;SDS011;58851;42.984;20.336;2023-03-16T02:09:49;7.32;;;5.97;;
55330;SDS011;58851;42.984;20.336;2023-03-16T02:12:17;11.35;;;6.82;;
55330;SDS011;58851;42.984;20.336;2023-03-16T02:14:44;11.75;;;5.90;;
55330;SDS011;58851;42.984;20.336;2023-03-16T02:17:16;9.23;;;5.82;;
55330;SDS011;58851;42.984;20.336;2023-03-16T02:22:36;6.60;;;4.13;;
55330;SDS011;58851;42.984;20.336;2023-03-16T02:25:07;7.60;;;5.10;;
55330;SDS011;58851;42.984;20.336;2023-03-16T02:27:42;9.85;;;6.00;;
55330;SDS011;58851;42.984;20.336;2023-03-16T02:30:30;6.35;;;5.18;;
55330;SDS011;58851;42.984;20.336;2023-03-16T02:32:56;5.93;;;4.30;;
55330;SDS011;58851;42.984;20.336;2023-03-16T02:35:22;5.85;;;4.20;;
55330;SDS011;58851;42.984;20.336;2023-03-16T02:37:48;4.53;;;3.40;;
55330;SDS011;58851;42.984;20.336;2023-03-16T02:40:22;5.38;;;4.10;;
55330;SDS011;58851;42.984;20.336;2023-03-16T02:43:15;6.88;;;4.78;;
55330;SDS011;58851;42.984;20.336;2023-03-16T02:45:45;5.50;;;3.72;;
55330;SDS011;58851;42.984;20.336;2023-03-16T02:48:36;4.63;;;3.15;;
55330;SDS011;58851;42.984;20.336;2023-03-16T02:51:06;5.18;;;3.90;;
55330;SDS011;58851;42.984;20.336;2023-03-16T02:53:33;3.78;;;2.83;;
55330;SDS011;58851;42.984;20.336;2023-03-16T02:55:58;4.97;;;3.60;;
55330;SDS011;58851;42.984;20.336;2023-03-16T02:58:26;4.22;;;3.30;;
55330;SDS011;58851;42.984;20.336;2023-03-16T03:00:53;5.07;;;3.92;;
55330;SDS011;58851;42.984;20.336;2023-03-16T03:03:19;5.75;;;3.20;;
55330;SDS011;58851;42.984;20.336;2023-03-16T03:05:45;6.20;;;3.70;;
55330;SDS011;58851;42.984;20.336;2023-03-16T03:08:12;5.25;;;3.53;;
55330;SDS011;58851;42.984;20.336;2023-03-16T03:10:38;6.13;;;4.47;;
55330;SDS011;58851;42.984;20.336;2023-03-16T03:13:04;7.53;;;4.32;;
55330;SDS011;58851;42.984;20.336;2023-03-16T03:15:31;9.48;;;5.75;;
55330;SDS011;58851;42.984;20.336;2023-03-16T03:17:58;6.03;;;4.18;;
55330;SDS011;58851;42.984;20.336;2023-03-16T03:20:24;5.85;;;4.05;;
55330;SDS011;58851;42.984;20.336;2023-03-16T03:22:50;7.38;;;3.97;;
55330;SDS011;58851;42.984;20.336;2023-03-16T03:25:20;5.85;;;3.63;;
55330;SDS011;58851;42.984;20.336;2023-03-16T03:27:46;7.00;;;3.55;;
55330;SDS011;58851;42.984;20.336;2023-03-16T03:30:15;4.47;;;3.25;;
55330;SDS011;58851;42.984;20.336;2023-03-16T03:32:43;4.82;;;3.60;;
55330;SDS011;58851;42.984;20.336;2023-03-16T03:35:09;5.72;;;3.80;;
55330;SDS011;58851;42.984;20.336;2023-03-16T03:37:40;4.90;;;3.25;;
55330;SDS011;58851;42.984;20.336;2023-03-16T03:40:08;4.45;;;3.70;;
55330;SDS011;58851;42.984;20.336;2023-03-16T03:42:36;6.82;;;3.83;;
55330;SDS011;58851;42.984;20.336;2023-03-16T03:45:02;5.43;;;3.90;;
55330;SDS011;58851;42.984;20.336;2023-03-16T03:47:29;4.50;;;3.60;;
55330;SDS011;58851;42.984;20.336;2023-03-16T03:49:55;6.20;;;4.15;;
55330;SDS011;58851;42.984;20.336;2023-03-16T03:52:22;5.35;;;3.47;;
55330;SDS011;58851;42.984;20.336;2023-03-16T03:54:47;6.25;;;4.07;;
55330;SDS011;58851;42.984;20.336;2023-03-16T03:57:13;5.72;;;4.00;;
55330;SDS011;58851;42.984;20.336;2023-03-16T03:59:39;7.68;;;4.80;;
55330;SDS011;58851;42.984;20.336;2023-03-16T04:02:11;6.07;;;4.18;;
55330;SDS011;58851;42.984;20.336;2023-03-16T04:04:37;7.30;;;4.82;;
55330;SDS011;58851;42.984;20.336;2023-03-16T04:07:04;8.07;;;4.00;;
55330;SDS011;58851;42.984;20.336;2023-03-16T04:09:30;6.63;;;4.70;;
55330;SDS011;58851;42.984;20.336;2023-03-16T04:11:59;7.65;;;5.20;;
55330;SDS011;58851;42.984;20.336;2023-03-16T04:14:26;5.82;;;3.35;;
55330;SDS011;58851;42.984;20.336;2023-03-16T04:16:53;6.50;;;4.13;;
55330;SDS011;58851;42.984;20.336;2023-03-16T04:19:19;7.65;;;4.80;;
55330;SDS011;58851;42.984;20.336;2023-03-16T04:21:46;7.10;;;4.40;;
55330;SDS011;58851;42.984;20.336;2023-03-16T04:24:12;8.80;;;5.88;;
55330;SDS011;58851;42.984;20.336;2023-03-16T04:26:39;7.38;;;4.50;;
55330;SDS011;58851;42.984;20.336;2023-03-16T04:29:06;5.82;;;4.50;;
55330;SDS011;58851;42.984;20.336;2023-03-16T04:31:31;6.63;;;5.03;;
55330;SDS011;58851;42.984;20.336;2023-03-16T04:33:57;7.15;;;5.40;;
55330;SDS011;58851;42.984;20.336;2023-03-16T04:36:23;7.47;;;5.20;;
55330;SDS011;58851;42.984;20.336;2023-03-16T04:38:49;6.35;;;4.88;;
55330;SDS011;58851;42.984;20.336;2023-03-16T04:41:15;10.52;;;6.55;;
55330;SDS011;58851;42.984;20.336;2023-03-16T04:43:42;5.10;;;3.88;;
55330;SDS011;58851;42.984;20.336;2023-03-16T04:46:08;8.05;;;5.38;;
55330;SDS011;58851;42.984;20.336;2023-03-16T04:48:34;7.75;;;5.07;;
55330;SDS011;58851;42.984;20.336;2023-03-16T04:51:01;8.07;;;4.05;;
55330;SDS011;58851;42.984;20.336;2023-03-16T04:53:28;9.68;;;6.65;;
55330;SDS011;58851;42.984;20.336;2023-03-16T04:55:56;8.95;;;6.40;;
55330;SDS011;58851;42.984;20.336;2023-03-16T04:58:24;9.73;;;5.75;;
55330;SDS011;58851;42.984;20.336;2023-03-16T05:00:50;5.57;;;4.28;;
55330;SDS011;58851;42.984;20.336;2023-03-16T05:03:17;8.90;;;6.15;;
55330;SDS011;58851;42.984;20.336;2023-03-16T05:05:42;12.05;;;7.03;;
55330;SDS011;58851;42.984;20.336;2023-03-16T05:08:10;8.60;;;5.90;;
55330;SDS011;58851;42.984;20.336;2023-03-16T05:10:36;6.65;;;5.15;;
55330;SDS011;58851;42.984;20.336;2023-03-16T05:13:02;7.10;;;5.00;;
55330;SDS011;58851;42.984;20.336;2023-03-16T05:15:29;9.00;;;5.70;;
55330;SDS011;58851;42.984;20.336;2023-03-16T05:17:55;10.07;;;6.18;;
55330;SDS011;58851;42.984;20.336;2023-03-16T05:20:21;10.18;;;6.00;;
55330;SDS011;58851;42.984;20.336;2023-03-16T05:22:47;10.73;;;6.55;;
55330;SDS011;58851;42.984;20.336;2023-03-16T05:25:13;7.57;;;5.55;;
55330;SDS011;58851;42.984;20.336;2023-03-16T05:27:43;18.38;;;9.88;;
55330;SDS011;58851;42.984;20.336;2023-03-16T05:30:11;14.68;;;6.85;;
55330;SDS011;58851;42.984;20.336;2023-03-16T05:32:37;9.52;;;5.43;;
55330;SDS011;58851;42.984;20.336;2023-03-16T05:35:04;14.82;;;9.23;;
55330;SDS011;58851;42.984;20.336;2023-03-16T05:37:31;12.65;;;7.47;;
55330;SDS011;58851;42.984;20.336;2023-03-16T05:39:58;14.98;;;8.38;;
55330;SDS011;58851;42.984;20.336;2023-03-16T05:42:24;19.15;;;11.93;;
55330;SDS011;58851;42.984;20.336;2023-03-16T05:44:52;20.73;;;12.27;;
55330;SDS011;58851;42.984;20.336;2023-03-16T05:47:18;13.07;;;8.48;;
55330;SDS011;58851;42.984;20.336;2023-03-16T05:49:44;9.43;;;6.88;;
55330;SDS011;58851;42.984;20.336;2023-03-16T05:52:10;13.55;;;9.95;;
55330;SDS011;58851;42.984;20.336;2023-03-16T05:54:36;11.20;;;8.57;;
55330;SDS011;58851;42.984;20.336;2023-03-16T05:57:02;21.05;;;14.65;;
55330;SDS011;58851;42.984;20.336;2023-03-16T05:59:31;17.20;;;11.55;;
55330;SDS011;58851;42.984;20.336;2023-03-16T06:01:56;15.68;;;9.73;;
55330;SDS011;58851;42.984;20.336;2023-03-16T06:04:22;17.90;;;12.73;;
55330;SDS011;58851;42.984;20.336;2023-03-16T06:07:07;14.77;;;10.18;;
55330;SDS011;58851;42.984;20.336;2023-03-16T06:09:33;15.02;;;9.68;;
55330;SDS011;58851;42.984;20.336;2023-03-16T06:11:58;13.05;;;9.73;;
55330;SDS011;58851;42.984;20.336;2023-03-16T06:14:24;18.13;;;14.15;;
55330;SDS011;58851;42.984;20.336;2023-03-16T06:16:50;17.35;;;13.35;;
55330;SDS011;58851;42.984;20.336;2023-03-16T06:19:16;17.27;;;12.73;;
55330;SDS011;58851;42.984;20.336;2023-03-16T06:21:41;16.08;;;11.18;;
55330;SDS011;58851;42.984;20.336;2023-03-16T06:24:07;17.88;;;13.95;;
55330;SDS011;58851;42.984;20.336;2023-03-16T06:26:34;14.50;;;9.70;;
55330;SDS011;58851;42.984;20.336;2023-03-16T06:29:00;20.00;;;12.18;;
55330;SDS011;58851;42.984;20.336;2023-03-16T06:31:26;18.65;;;10.85;;
55330;SDS011;58851;42.984;20.336;2023-03-16T06:33:51;15.18;;;9.30;;
55330;SDS011;58851;42.984;20.336;2023-03-16T06:36:17;22.27;;;15.13;;
55330;SDS011;58851;42.984;20.336;2023-03-16T06:38:43;13.93;;;10.50;;
55330;SDS011;58851;42.984;20.336;2023-03-16T06:41:09;18.02;;;12.65;;
55330;SDS011;58851;42.984;20.336;2023-03-16T06:43:35;25.05;;;14.80;;
55330;SDS011;58851;42.984;20.336;2023-03-16T06:46:01;20.25;;;13.57;;
55330;SDS011;58851;42.984;20.336;2023-03-16T06:48:27;25.73;;;15.00;;
55330;SDS011;58851;42.984;20.336;2023-03-16T06:50:53;19.27;;;13.27;;
55330;SDS011;58851;42.984;20.336;2023-03-16T06:53:19;14.48;;;11.18;;
55330;SDS011;58851;42.984;20.336;2023-03-16T06:55:46;21.42;;;13.05;;
55330;SDS011;58851;42.984;20.336;2023-03-16T06:58:12;25.80;;;14.98;;
55330;SDS011;58851;42.984;20.336;2023-03-16T07:00:37;20.13;;;11.40;;
55330;SDS011;58851;42.984;20.336;2023-03-16T07:03:03;19.95;;;12.10;;
55330;SDS011;58851;42.984;20.336;2023-03-16T07:05:29;27.40;;;16.20;;
55330;SDS011;58851;42.984;20.336;2023-03-16T07:07:55;23.88;;;16.30;;
55330;SDS011;58851;42.984;20.336;2023-03-16T07:10:21;16.48;;;9.55;;
55330;SDS011;58851;42.984;20.336;2023-03-16T07:12:47;18.20;;;13.35;;
55330;SDS011;58851;42.984;20.336;2023-03-16T07:15:14;21.20;;;14.23;;
55330;SDS011;58851;42.984;20.336;2023-03-16T07:17:40;20.70;;;12.43;;
55330;SDS011;58851;42.984;20.336;2023-03-16T07:20:07;24.02;;;14.32;;
55330;SDS011;58851;42.984;20.336;2023-03-16T07:22:35;32.75;;;22.45;;
55330;SDS011;58851;42.984;20.336;2023-03-16T07:25:01;21.60;;;15.20;;
55330;SDS011;58851;42.984;20.336;2023-03-16T07:27:27;27.73;;;21.13;;
55330;SDS011;58851;42.984;20.336;2023-03-16T07:29:54;26.23;;;18.27;;
55330;SDS011;58851;42.984;20.336;2023-03-16T07:32:20;33.65;;;23.42;;
55330;SDS011;58851;42.984;20.336;2023-03-16T07:34:47;52.95;;;30.10;;
55330;SDS011;58851;42.984;20.336;2023-03-16T07:37:13;61.13;;;30.45;;
55330;SDS011;58851;42.984;20.336;2023-03-16T07:39:40;34.03;;;21.70;;
55330;SDS011;58851;42.984;20.336;2023-03-16T07:42:06;38.70;;;21.00;;
55330;SDS011;58851;42.984;20.336;2023-03-16T07:44:32;28.20;;;17.60;;
55330;SDS011;58851;42.984;20.336;2023-03-16T07:46:58;22.92;;;17.42;;
55330;SDS011;58851;42.984;20.336;2023-03-16T07:49:24;23.65;;;18.30;;
55330;SDS011;58851;42.984;20.336;2023-03-16T07:51:49;26.30;;;18.92;;
55330;SDS011;58851;42.984;20.336;2023-03-16T07:54:15;27.48;;;18.88;;
55330;SDS011;58851;42.984;20.336;2023-03-16T07:56:41;32.13;;;21.23;;
55330;SDS011;58851;42.984;20.336;2023-03-16T07:59:07;35.15;;;23.63;;
55330;SDS011;58851;42.984;20.336;2023-03-16T08:01:33;53.30;;;37.13;;
55330;SDS011;58851;42.984;20.336;2023-03-16T08:03:59;35.08;;;26.05;;
55330;SDS011;58851;42.984;20.336;2023-03-16T08:06:26;18.30;;;13.45;;
55330;SDS011;58851;42.984;20.336;2023-03-16T08:08:52;21.45;;;15.07;;
55330;SDS011;58851;42.984;20.336;2023-03-16T08:11:18;29.73;;;19.95;;
55330;SDS011;58851;42.984;20.336;2023-03-16T08:13:50;49.20;;;31.40;;
55330;SDS011;58851;42.984;20.336;2023-03-16T08:16:21;18.33;;;12.30;;
55330;SDS011;58851;42.984;20.336;2023-03-16T08:18:48;20.60;;;15.63;;
55330;SDS011;58851;42.984;20.336;2023-03-16T08:21:14;20.48;;;15.23;;
55330;SDS011;58851;42.984;20.336;2023-03-16T08:23:41;19.90;;;14.23;;
55330;SDS011;58851;42.984;20.336;2023-03-16T08:26:13;11.60;;;8.95;;
55330;SDS011;58851;42.984;20.336;2023-03-16T08:28:41;15.52;;;11.35;;
55330;SDS011;58851;42.984;20.336;2023-03-16T08:31:09;15.45;;;11.90;;
55330;SDS011;58851;42.984;20.336;2023-03-16T08:33:36;14.27;;;10.75;;
55330;SDS011;58851;42.984;20.336;2023-03-16T08:36:04;13.40;;;9.55;;
55330;SDS011;58851;42.984;20.336;2023-03-16T08:38:31;9.60;;;7.88;;
55330;SDS011;58851;42.984;20.336;2023-03-16T08:40:57;10.35;;;8.93;;
55330;SDS011;58851;42.984;20.336;2023-03-16T08:43:24;9.23;;;7.60;;
55330;SDS011;58851;42.984;20.336;2023-03-16T08:45:51;19.90;;;13.20;;
55330;SDS011;58851;42.984;20.336;2023-03-16T08:48:18;14.90;;;10.52;;
55330;SDS011;58851;42.984;20.336;2023-03-16T08:50:44;16.42;;;10.88;;
55330;SDS011;58851;42.984;20.336;2023-03-16T08:53:11;13.50;;;8.38;;
55330;SDS011;58851;42.984;20.336;2023-03-16T08:55:38;14.10;;;11.05;;
55330;SDS011;58851;42.984;20.336;2023-03-16T08:58:05;12.52;;;8.25;;
55330;SDS011;58851;42.984;20.336;2023-03-16T09:00:32;10.45;;;5.95;;
55330;SDS011;58851;42.984;20.336;2023-03-16T09:02:58;16.90;;;12.13;;
55330;SDS011;58851;42.984;20.336;2023-03-16T09:05:25;14.38;;;10.65;;
55330;SDS011;58851;42.984;20.336;2023-03-16T09:07:51;17.98;;;11.82;;
55330;SDS011;58851;42.984;20.336;2023-03-16T09:10:18;15.98;;;12.82;;
55330;SDS011;58851;42.984;20.336;2023-03-16T09:12:47;22.17;;;15.68;;
55330;SDS011;58851;42.984;20.336;2023-03-16T09:15:13;21.90;;;18.13;;
55330;SDS011;58851;42.984;20.336;2023-03-16T09:17:39;17.63;;;13.07;;
55330;SDS011;58851;42.984;20.336;2023-03-16T09:20:10;14.75;;;11.73;;
55330;SDS011;58851;42.984;20.336;2023-03-16T09:22:39;13.98;;;9.00;;
55330;SDS011;58851;42.984;20.336;2023-03-16T09:25:05;14.95;;;11.00;;
55330;SDS011;58851;42.984;20.336;2023-03-16T09:27:32;42.55;;;22.48;;
55330;SDS011;58851;42.984;20.336;2023-03-16T09:30:01;15.57;;;10.55;;
55330;SDS011;58851;42.984;20.336;2023-03-16T09:32:31;18.52;;;12.13;;
55330;SDS011;58851;42.984;20.336;2023-03-16T09:34:58;10.88;;;7.95;;
55330;SDS011;58851;42.984;20.336;2023-03-16T09:37:24;15.98;;;11.20;;
55330;SDS011;58851;42.984;20.336;2023-03-16T09:39:50;16.15;;;12.43;;
55330;SDS011;58851;42.984;20.336;2023-03-16T09:42:28;13.85;;;9.45;;
55330;SDS011;58851;42.984;20.336;2023-03-16T09:45:04;11.25;;;7.95;;
55330;SDS011;58851;42.984;20.336;2023-03-16T09:47:46;21.13;;;17.65;;
55330;SDS011;58851;42.984;20.336;2023-03-16T09:50:19;24.77;;;18.40;;
55330;SDS011;58851;42.984;20.336;2023-03-16T09:53:02;22.60;;;14.85;;
55330;SDS011;58851;42.984;20.336;2023-03-16T09:55:48;15.73;;;12.43;;
55330;SDS011;58851;42.984;20.336;2023-03-16T09:58:18;13.98;;;10.30;;
55330;SDS011;58851;42.984;20.336;2023-03-16T10:06:44;33.40;;;23.40;;
55330;SDS011;58851;42.984;20.336;2023-03-16T10:09:35;27.40;;;21.98;;
55330;SDS011;58851;42.984;20.336;2023-03-16T10:12:07;13.85;;;11.32;;
55330;SDS011;58851;42.984;20.336;2023-03-16T10:20:01;26.25;;;16.65;;
55330;SDS011;58851;42.984;20.336;2023-03-16T10:22:33;64.53;;;33.10;;
55330;SDS011;58851;42.984;20.336;2023-03-16T10:25:17;51.53;;;26.65;;
55330;SDS011;58851;42.984;20.336;2023-03-16T10:28:19;16.88;;;12.02;;
55330;SDS011;58851;42.984;20.336;2023-03-16T10:30:50;20.48;;;15.35;;
55330;SDS011;58851;42.984;20.336;2023-03-16T10:43:51;16.85;;;10.95;;
55330;SDS011;58851;42.984;20.336;2023-03-16T10:46:38;25.20;;;15.35;;
55330;SDS011;58851;42.984;20.336;2023-03-16T10:51:52;15.52;;;9.85;;
55330;SDS011;58851;42.984;20.336;2023-03-16T10:56:57;9.07;;;7.75;;
55330;SDS011;58851;42.984;20.336;2023-03-16T10:59:28;22.00;;;10.10;;
55330;SDS011;58851;42.984;20.336;2023-03-16T11:01:57;12.57;;;8.27;;
55330;SDS011;58851;42.984;20.336;2023-03-16T11:04:24;13.73;;;10.57;;
55330;SDS011;58851;42.984;20.336;2023-03-16T11:06:55;17.45;;;12.98;;
55330;SDS011;58851;42.984;20.336;2023-03-16T11:09:23;12.50;;;9.63;;
55330;SDS011;58851;42.984;20.336;2023-03-16T11:11:57;9.85;;;7.90;;
55330;SDS011;58851;42.984;20.336;2023-03-16T11:14:27;20.20;;;12.90;;
55330;SDS011;58851;42.984;20.336;2023-03-16T11:19:38;17.17;;;9.65;;
55330;SDS011;58851;42.984;20.336;2023-03-16T11:22:15;9.82;;;7.03;;
55330;SDS011;58851;42.984;20.336;2023-03-16T11:30:39;19.23;;;13.60;;
55330;SDS011;58851;42.984;20.336;2023-03-16T11:33:31;15.40;;;9.90;;
55330;SDS011;58851;42.984;20.336;2023-03-16T11:41:28;21.45;;;13.02;;
55330;SDS011;58851;42.984;20.336;2023-03-16T11:46:41;16.45;;;11.77;;
55330;SDS011;58851;42.984;20.336;2023-03-16T11:49:34;17.23;;;14.18;;
55330;SDS011;58851;42.984;20.336;2023-03-16T11:52:14;13.65;;;9.85;;
55330;SDS011;58851;42.984;20.336;2023-03-16T12:11:11;14.25;;;9.85;;
55330;SDS011;58851;42.984;20.336;2023-03-16T12:16:35;16.02;;;11.85;;
55330;SDS011;58851;42.984;20.336;2023-03-16T12:19:12;23.55;;;13.60;;
55330;SDS011;58851;42.984;20.336;2023-03-16T12:21:47;19.63;;;10.15;;
55330;SDS011;58851;42.984;20.336;2023-03-16T12:24:20;16.90;;;10.43;;
55330;SDS011;58851;42.984;20.336;2023-03-16T12:26:54;14.35;;;9.27;;
55330;SDS011;58851;42.984;20.336;2023-03-16T12:37:55;12.88;;;8.65;;
55330;SDS011;58851;42.984;20.336;2023-03-16T12:40:48;20.85;;;14.48;;
55330;SDS011;58851;42.984;20.336;2023-03-16T12:48:43;30.65;;;22.83;;
55330;SDS011;58851;42.984;20.336;2023-03-16T12:51:13;13.10;;;9.90;;
55330;SDS011;58851;42.984;20.336;2023-03-16T12:56:33;14.63;;;11.25;;
55330;SDS011;58851;42.984;20.336;2023-03-16T12:59:14;15.70;;;9.75;;
55330;SDS011;58851;42.984;20.336;2023-03-16T13:01:47;17.15;;;10.70;;
55330;SDS011;58851;42.984;20.336;2023-03-16T13:04:16;13.38;;;8.75;;
55330;SDS011;58851;42.984;20.336;2023-03-16T13:06:51;11.65;;;8.43;;
55330;SDS011;58851;42.984;20.336;2023-03-16T13:09:33;19.43;;;10.97;;
55330;SDS011;58851;42.984;20.336;2023-03-16T13:12:06;18.05;;;10.65;;
55330;SDS011;58851;42.984;20.336;2023-03-16T13:14:38;19.75;;;9.02;;
55330;SDS011;58851;42.984;20.336;2023-03-16T13:19:41;14.07;;;10.63;;
55330;SDS011;58851;42.984;20.336;2023-03-16T13:22:24;10.65;;;7.28;;
55330;SDS011;58851;42.984;20.336;2023-03-16T13:27:51;18.83;;;11.10;;
55330;SDS011;58851;42.984;20.336;2023-03-16T13:30:26;9.82;;;7.20;;
55330;SDS011;58851;42.984;20.336;2023-03-16T13:32:55;17.10;;;10.95;;
55330;SDS011;58851;42.984;20.336;2023-03-16T13:35:28;15.70;;;7.70;;
55330;SDS011;58851;42.984;20.336;2023-03-16T13:38:01;20.70;;;12.35;;
55330;SDS011;58851;42.984;20.336;2023-03-16T13:40:30;20.45;;;13.55;;
55330;SDS011;58851;42.984;20.336;2023-03-16T13:42:56;17.00;;;8.98;;
55330;SDS011;58851;42.984;20.336;2023-03-16T13:45:27;14.75;;;8.23;;
55330;SDS011;58851;42.984;20.336;2023-03-16T13:47:57;13.10;;;8.33;;
55330;SDS011;58851;42.984;20.336;2023-03-16T13:50:24;24.10;;;15.00;;
55330;SDS011;58851;42.984;20.336;2023-03-16T13:52:52;20.20;;;12.32;;
55330;SDS011;58851;42.984;20.336;2023-03-16T13:55:25;18.70;;;11.35;;
55330;SDS011;58851;42.984;20.336;2023-03-16T13:57:56;74.75;;;49.58;;
55330;SDS011;58851;42.984;20.336;2023-03-16T14:00:23;26.42;;;15.15;;
55330;SDS011;58851;42.984;20.336;2023-03-16T14:02:55;15.77;;;10.77;;
55330;SDS011;58851;42.984;20.336;2023-03-16T14:05:24;16.77;;;11.73;;
55330;SDS011;58851;42.984;20.336;2023-03-16T14:07:51;12.48;;;9.57;;
55330;SDS011;58851;42.984;20.336;2023-03-16T14:10:19;21.13;;;13.82;;
55330;SDS011;58851;42.984;20.336;2023-03-16T14:12:50;14.85;;;11.45;;
55330;SDS011;58851;42.984;20.336;2023-03-16T14:15:18;14.60;;;9.32;;
55330;SDS011;58851;42.984;20.336;2023-03-16T14:17:44;17.08;;;9.50;;
55330;SDS011;58851;42.984;20.336;2023-03-16T14:20:16;16.23;;;12.27;;
55330;SDS011;58851;42.984;20.336;2023-03-16T14:22:49;11.20;;;9.20;;
55330;SDS011;58851;42.984;20.336;2023-03-16T14:25:21;17.60;;;6.53;;
55330;SDS011;58851;42.984;20.336;2023-03-16T14:28:04;20.50;;;13.57;;
55330;SDS011;58851;42.984;20.336;2023-03-16T14:30:31;11.18;;;7.57;;
55330;SDS011;58851;42.984;20.336;2023-03-16T14:33:04;24.48;;;15.57;;
55330;SDS011;58851;42.984;20.336;2023-03-16T14:35:52;16.13;;;9.60;;
55330;SDS011;58851;42.984;20.336;2023-03-16T14:38:30;29.05;;;15.65;;
55330;SDS011;58851;42.984;20.336;2023-03-16T14:43:59;22.67;;;11.20;;
55330;SDS011;58851;42.984;20.336;2023-03-16T14:46:28;21.48;;;11.48;;
55330;SDS011;58851;42.984;20.336;2023-03-16T14:51:46;11.13;;;8.27;;
55330;SDS011;58851;42.984;20.336;2023-03-16T14:54:14;92.47;;;40.40;;
55330;SDS011;58851;42.984;20.336;2023-03-16T14:56:42;31.58;;;19.63;;
55330;SDS011;58851;42.984;20.336;2023-03-16T14:59:13;59.28;;;31.83;;
55330;SDS011;58851;42.984;20.336;2023-03-16T15:01:38;67.93;;;41.42;;
55330;SDS011;58851;42.984;20.336;2023-03-16T15:04:04;24.05;;;16.10;;
55330;SDS011;58851;42.984;20.336;2023-03-16T15:06:31;21.23;;;15.32;;
55330;SDS011;58851;42.984;20.336;2023-03-16T15:08:58;23.45;;;14.20;;
55330;SDS011;58851;42.984;20.336;2023-03-16T15:11:27;29.10;;;17.30;;
55330;SDS011;58851;42.984;20.336;2023-03-16T15:13:53;90.25;;;46.13;;
55330;SDS011;58851;42.984;20.336;2023-03-16T15:16:28;84.05;;;48.70;;
55330;SDS011;58851;42.984;20.336;2023-03-16T15:18:54;34.42;;;21.90;;
55330;SDS011;58851;42.984;20.336;2023-03-16T15:21:21;22.40;;;13.65;;
55330;SDS011;58851;42.984;20.336;2023-03-16T15:23:48;31.05;;;20.95;;
55330;SDS011;58851;42.984;20.336;2023-03-16T15:26:15;17.75;;;12.05;;
55330;SDS011;58851;42.984;20.336;2023-03-16T15:28:46;19.25;;;13.90;;
55330;SDS011;58851;42.984;20.336;2023-03-16T15:31:12;14.60;;;9.13;;
55330;SDS011;58851;42.984;20.336;2023-03-16T15:33:38;15.88;;;11.57;;
55330;SDS011;58851;42.984;20.336;2023-03-16T15:36:09;11.30;;;8.77;;
55330;SDS011;58851;42.984;20.336;2023-03-16T15:38:49;17.92;;;11.98;;
55330;SDS011;58851;42.984;20.336;2023-03-16T15:41:17;18.30;;;12.73;;
55330;SDS011;58851;42.984;20.336;2023-03-16T15:43:43;22.20;;;14.02;;
55330;SDS011;58851;42.984;20.336;2023-03-16T15:46:12;20.73;;;13.05;;
55330;SDS011;58851;42.984;20.336;2023-03-16T15:48:38;28.38;;;18.50;;
55330;SDS011;58851;42.984;20.336;2023-03-16T15:51:06;22.00;;;15.20;;
55330;SDS011;58851;42.984;20.336;2023-03-16T15:53:39;47.90;;;31.73;;
55330;SDS011;58851;42.984;20.336;2023-03-16T15:56:10;29.10;;;17.98;;
55330;SDS011;58851;42.984;20.336;2023-03-16T15:58:40;50.42;;;34.58;;
55330;SDS011;58851;42.984;20.336;2023-03-16T16:01:15;78.55;;;37.58;;
55330;SDS011;58851;42.984;20.336;2023-03-16T16:03:54;19.42;;;13.75;;
55330;SDS011;58851;42.984;20.336;2023-03-16T16:06:21;18.02;;;12.80;;
55330;SDS011;58851;42.984;20.336;2023-03-16T16:08:48;33.75;;;24.05;;
55330;SDS011;58851;42.984;20.336;2023-03-16T16:11:21;47.15;;;28.20;;
55330;SDS011;58851;42.984;20.336;2023-03-16T16:13:49;60.80;;;38.42;;